Time;durP1;ratioP1;P1;durP2;ratioP2;P2;SDS_P1;SDS_P2;PMS_P1;PMS_P2;Temp;Humidity;BMP_temperature;BMP_pressure;BME280_temperature;BME280_humidity;BME280_pressure;Samples;Min_cycle;Max_cycle;Signal;HPM_P1;HPM_P2
2022/07/24 00:00:18;;;;;;;2.63;1.80;;;18.00;99.90;;;;;;5032663;28;20029;-75
2022/07/24 00:02:43;;;;;;;2.38;1.90;;;18.00;99.90;;;;;;5031156;28;20013;-75
2022/07/24 00:05:10;;;;;;;3.05;2.13;;;18.10;99.90;;;;;;5031887;28;20493;-75
2022/07/24 00:07:36;;;;;;;5.03;2.03;;;18.20;99.90;;;;;;5032776;28;20030;-75
2022/07/24 00:10:05;;;;;;;5.90;1.77;;;18.20;99.90;;;;;;5032662;28;20455;-75
2022/07/24 00:12:31;;;;;;;3.10;1.80;;;18.20;99.90;;;;;;5032252;28;20025;-75
2022/07/24 00:14:57;;;;;;;2.67;1.77;;;18.20;99.90;;;;;;5031849;28;20064;-75
2022/07/24 00:17:23;;;;;;;2.10;1.70;;;18.10;99.90;;;;;;5031916;28;20034;-75
2022/07/24 00:19:48;;;;;;;2.95;1.85;;;18.20;99.90;;;;;;5032247;28;20025;-75
2022/07/24 00:22:14;;;;;;;4.43;2.35;;;18.10;99.90;;;;;;5030846;28;20102;-75
2022/07/24 00:24:40;;;;;;;3.10;2.20;;;18.20;99.90;;;;;;5029293;28;20034;-75
2022/07/24 00:29:44;;;;;;;3.72;2.00;;;18.20;99.90;;;;;;4988887;28;20054;-81
2022/07/24 00:32:10;;;;;;;2.78;1.98;;;18.20;99.90;;;;;;5007731;28;20100;-83
2022/07/24 00:34:35;;;;;;;3.33;2.05;;;18.30;99.90;;;;;;4985861;28;20026;-82
2022/07/24 00:37:01;;;;;;;4.40;2.50;;;18.20;99.90;;;;;;5007709;28;20373;-83
2022/07/24 00:39:27;;;;;;;3.40;1.80;;;18.20;99.90;;;;;;5007431;28;20034;-80
2022/07/24 00:41:53;;;;;;;4.22;2.10;;;18.20;99.90;;;;;;5007267;28;20026;-82
2022/07/24 00:44:19;;;;;;;2.45;1.92;;;18.20;99.90;;;;;;4992290;28;20014;-82
2022/07/24 00:46:46;;;;;;;4.15;1.70;;;18.20;99.90;;;;;;5007647;28;20034;-80
2022/07/24 00:49:14;;;;;;;5.22;2.35;;;18.10;99.90;;;;;;5007231;28;20018;-81
2022/07/24 00:51:44;;;;;;;2.75;1.88;;;18.10;99.90;;;;;;4992539;28;20037;-81
2022/07/24 00:54:12;;;;;;;4.28;1.92;;;18.10;99.90;;;;;;4992351;28;20030;-81
2022/07/24 00:56:40;;;;;;;2.17;1.77;;;18.10;99.90;;;;;;4992041;28;20026;-82
2022/07/24 00:59:06;;;;;;;2.33;1.48;;;18.10;99.90;;;;;;4991688;28;20076;-82
2022/07/24 01:01:32;;;;;;;2.50;2.08;;;18.10;99.90;;;;;;4992179;28;20035;-80
2022/07/24 01:03:58;;;;;;;4.03;1.77;;;18.10;99.90;;;;;;4991635;28;20022;-82
2022/07/24 01:06:24;;;;;;;3.83;1.80;;;18.10;99.90;;;;;;4992187;28;20411;-82
2022/07/24 01:08:51;;;;;;;2.70;1.80;;;18.00;99.90;;;;;;4991999;28;20041;-81
2022/07/24 01:11:18;;;;;;;3.65;2.08;;;18.00;99.90;;;;;;4991000;28;20398;-81
2022/07/24 01:13:46;;;;;;;2.58;1.77;;;17.90;99.90;;;;;;5006683;28;20121;-81
2022/07/24 01:16:12;;;;;;;2.78;2.03;;;17.90;99.90;;;;;;4991763;28;20066;-81
2022/07/24 01:18:37;;;;;;;3.40;1.85;;;17.80;99.90;;;;;;4991944;28;20108;-82
2022/07/24 01:21:04;;;;;;;5.47;2.33;;;17.80;99.90;;;;;;4991977;28;20073;-81
2022/07/24 01:23:30;;;;;;;3.20;1.80;;;17.70;99.90;;;;;;4991636;28;20014;-81
2022/07/24 01:25:56;;;;;;;2.28;1.98;;;17.60;99.90;;;;;;4991429;28;20045;-81
2022/07/24 01:28:22;;;;;;;5.57;2.25;;;17.60;99.90;;;;;;5016654;23;20423;-76
2022/07/24 01:30:48;;;;;;;3.75;2.40;;;17.50;99.90;;;;;;4990701;28;20022;-75
2022/07/24 01:33:14;;;;;;;7.22;2.63;;;17.50;99.90;;;;;;4991204;28;20098;-75
2022/07/24 01:35:41;;;;;;;2.30;1.88;;;17.50;99.90;;;;;;4991382;28;20034;-75
2022/07/24 01:38:07;;;;;;;5.28;2.03;;;17.40;99.90;;;;;;5006002;28;20023;-75
2022/07/24 01:40:33;;;;;;;4.07;2.42;;;17.40;99.90;;;;;;4990835;28;20022;-75
2022/07/24 01:42:59;;;;;;;3.97;2.00;;;17.30;99.90;;;;;;4991669;28;20018;-74
2022/07/24 01:45:24;;;;;;;2.40;1.80;;;17.20;99.90;;;;;;4990736;28;20030;-74
2022/07/24 01:47:50;;;;;;;3.22;1.90;;;17.20;99.90;;;;;;4991210;28;20033;-76
2022/07/24 01:50:16;;;;;;;3.42;1.88;;;17.20;99.90;;;;;;4991587;28;20061;-74
2022/07/24 01:52:42;;;;;;;4.55;2.20;;;17.20;99.90;;;;;;4991505;28;20037;-75
2022/07/24 01:55:08;;;;;;;4.57;1.85;;;17.10;99.90;;;;;;4990071;28;20069;-75
2022/07/24 01:57:34;;;;;;;3.30;2.13;;;17.10;99.90;;;;;;4990893;28;20030;-75
2022/07/24 02:00:02;;;;;;;4.47;2.22;;;17.10;99.90;;;;;;4990605;28;20044;-75
2022/07/24 02:02:28;;;;;;;3.00;1.52;;;17.10;99.90;;;;;;4990810;28;20113;-75
2022/07/24 02:04:53;;;;;;;4.97;2.10;;;17.10;99.90;;;;;;4990856;28;20519;-75
2022/07/24 02:07:20;;;;;;;3.47;2.00;;;17.10;99.90;;;;;;4990910;28;20068;-75
2022/07/24 02:09:45;;;;;;;3.25;1.70;;;17.00;99.90;;;;;;4990736;28;20129;-76
2022/07/24 02:12:11;;;;;;;4.53;2.55;;;17.00;99.90;;;;;;4991140;28;20170;-75
2022/07/24 02:14:37;;;;;;;3.33;1.90;;;17.10;99.90;;;;;;4990756;28;20383;-75
2022/07/24 02:17:04;;;;;;;3.05;2.03;;;17.00;99.90;;;;;;5005967;28;20032;-75
2022/07/24 02:19:30;;;;;;;2.75;1.85;;;17.10;99.90;;;;;;4990926;28;20022;-75
2022/07/24 02:21:55;;;;;;;4.13;2.08;;;17.10;99.90;;;;;;4991235;28;20014;-75
2022/07/24 02:24:22;;;;;;;2.75;2.08;;;17.10;99.90;;;;;;4989719;28;20533;-75
2022/07/24 02:26:48;;;;;;;4.45;1.98;;;17.10;99.90;;;;;;4990669;28;20026;-74
2022/07/24 02:29:14;;;;;;;4.03;2.00;;;17.10;99.90;;;;;;5036686;23;20073;-82
2022/07/24 02:31:40;;;;;;;3.53;2.13;;;17.10;99.90;;;;;;5029733;28;20589;-81
2022/07/24 02:34:06;;;;;;;3.85;1.92;;;17.10;99.90;;;;;;5028456;28;20026;-82
2022/07/24 02:36:32;;;;;;;4.10;2.10;;;17.00;99.90;;;;;;5028692;28;20029;-81
2022/07/24 02:38:57;;;;;;;3.25;2.20;;;17.10;99.90;;;;;;5028677;28;20048;-81
2022/07/24 02:41:23;;;;;;;5.15;2.15;;;17.20;99.90;;;;;;5032672;28;20446;-81
2022/07/24 02:43:49;;;;;;;3.95;2.17;;;17.20;99.90;;;;;;5032490;28;20569;-82
2022/07/24 02:46:15;;;;;;;3.10;1.75;;;17.20;99.90;;;;;;5032379;28;20021;-82
2022/07/24 02:48:41;;;;;;;3.53;1.90;;;17.20;99.90;;;;;;5032720;28;20393;-82
2022/07/24 02:51:06;;;;;;;4.53;2.08;;;17.20;99.90;;;;;;5033996;28;20032;-82
2022/07/24 02:53:32;;;;;;;4.60;1.98;;;17.20;99.90;;;;;;5033815;28;20026;-82
2022/07/24 02:55:58;;;;;;;3.50;1.90;;;17.20;99.90;;;;;;5033289;28;20482;-81
2022/07/24 02:58:24;;;;;;;4.80;2.45;;;17.10;99.90;;;;;;5032977;28;20393;-81
2022/07/24 03:00:50;;;;;;;3.67;2.05;;;17.10;99.90;;;;;;5032254;28;20022;-81
2022/07/24 03:03:15;;;;;;;2.88;1.92;;;17.10;99.90;;;;;;5033821;28;20026;-81
2022/07/24 03:05:41;;;;;;;3.03;1.60;;;17.00;99.90;;;;;;5033730;28;20017;-81
2022/07/24 03:08:07;;;;;;;6.43;1.83;;;17.10;99.90;;;;;;5033542;28;20025;-81
2022/07/24 03:10:33;;;;;;;3.88;2.20;;;17.10;99.90;;;;;;5031955;28;20151;-82
2022/07/24 03:12:59;;;;;;;1.80;1.55;;;17.10;99.90;;;;;;5033515;28;20028;-81
2022/07/24 03:15:25;;;;;;;3.28;1.92;;;17.10;99.90;;;;;;5031634;28;20073;-82
2022/07/24 03:17:55;;;;;;;2.95;2.58;;;17.10;99.90;;;;;;5031920;28;20025;-82
2022/07/24 03:20:23;;;;;;;8.25;2.40;;;17.00;99.90;;;;;;5031783;28;20544;-82
2022/07/24 03:22:49;;;;;;;3.65;2.15;;;17.10;99.90;;;;;;5033147;28;20392;-83
2022/07/24 03:25:15;;;;;;;1.85;1.73;;;17.10;99.90;;;;;;5031495;28;20113;-81
2022/07/24 03:27:41;;;;;;;4.65;2.38;;;17.00;99.90;;;;;;5046875;23;20036;-75
2022/07/24 03:30:09;;;;;;;3.53;1.80;;;17.00;99.90;;;;;;5012964;28;20033;-75
2022/07/24 03:32:35;;;;;;;2.05;1.85;;;17.00;99.90;;;;;;5013063;28;20029;-75
2022/07/24 03:35:01;;;;;;;3.90;1.88;;;17.00;99.90;;;;;;5012952;28;20036;-75
2022/07/24 03:37:27;;;;;;;3.47;1.77;;;16.90;99.90;;;;;;5012973;28;20021;-75
2022/07/24 03:39:52;;;;;;;4.25;1.52;;;16.90;99.90;;;;;;5013008;28;20052;-75
2022/07/24 03:42:18;;;;;;;4.57;2.00;;;16.90;99.90;;;;;;5012791;28;20022;-75
2022/07/24 03:44:44;;;;;;;3.17;2.00;;;17.00;99.90;;;;;;5012728;28;20018;-75
2022/07/24 03:47:09;;;;;;;4.15;1.83;;;16.90;99.90;;;;;;5012664;28;20379;-74
2022/07/24 03:49:36;;;;;;;2.78;1.58;;;16.90;99.90;;;;;;5012705;28;20072;-74
2022/07/24 03:52:01;;;;;;;4.78;1.73;;;16.80;99.90;;;;;;5012171;28;20022;-75
2022/07/24 03:54:27;;;;;;;2.65;1.60;;;16.90;99.90;;;;;;5012052;28;20037;-75
2022/07/24 03:56:53;;;;;;;2.28;1.50;;;16.90;99.90;;;;;;5012400;28;20055;-74
2022/07/24 03:59:19;;;;;;;3.60;1.60;;;16.90;99.90;;;;;;5012675;28;20057;-75
2022/07/24 04:01:44;;;;;;;4.25;2.08;;;17.00;99.90;;;;;;5027819;28;20108;-74
2022/07/24 04:04:10;;;;;;;2.70;1.70;;;17.10;99.90;;;;;;5012077;28;20038;-75
2022/07/24 04:06:36;;;;;;;2.85;1.60;;;17.10;99.90;;;;;;5012538;28;20045;-74
2022/07/24 04:09:04;;;;;;;3.25;2.00;;;17.00;99.90;;;;;;5011774;28;20101;-75
2022/07/24 04:11:30;;;;;;;3.03;1.77;;;17.00;99.90;;;;;;5011692;28;20022;-75
2022/07/24 04:13:56;;;;;;;4.45;1.67;;;17.00;99.90;;;;;;5010984;28;20443;-75
2022/07/24 04:16:22;;;;;;;6.20;2.28;;;17.00;99.90;;;;;;5011918;28;20038;-74
2022/07/24 04:18:48;;;;;;;5.40;2.00;;;16.90;99.90;;;;;;5012432;28;20033;-75
2022/07/24 04:21:14;;;;;;;3.42;1.52;;;16.90;99.90;;;;;;5012324;28;20025;-75
2022/07/24 04:23:40;;;;;;;1.65;1.55;;;16.80;99.90;;;;;;5011700;28;20040;-74
2022/07/24 04:26:06;;;;;;;1.67;1.45;;;16.80;99.90;;;;;;5012055;28;20088;-75
2022/07/24 04:28:32;;;;;;;3.00;1.92;;;16.90;99.90;;;;;;5027355;23;20046;-82
2022/07/24 04:30:58;;;;;;;2.50;1.52;;;16.90;99.90;;;;;;5012113;28;20029;-82
2022/07/24 04:33:23;;;;;;;2.40;1.77;;;17.00;99.90;;;;;;5011903;28;20181;-82
2022/07/24 04:35:49;;;;;;;2.78;1.75;;;16.90;99.90;;;;;;5011772;28;20564;-83
2022/07/24 04:38:15;;;;;;;1.73;1.58;;;16.90;99.90;;;;;;5012093;28;20061;-82
2022/07/24 04:40:42;;;;;;;3.03;1.70;;;17.00;99.90;;;;;;5011890;28;20391;-84
2022/07/24 04:43:08;;;;;;;3.72;1.48;;;17.00;99.90;;;;;;5011448;28;20048;-82
2022/07/24 04:45:34;;;;;;;5.13;1.95;;;17.10;99.90;;;;;;5010730;28;20492;-83
2022/07/24 04:48:01;;;;;;;2.28;1.65;;;17.10;99.90;;;;;;5010245;28;20538;-82
2022/07/24 04:50:26;;;;;;;2.50;1.83;;;17.20;99.90;;;;;;5026921;28;20026;-82
2022/07/24 04:52:52;;;;;;;3.20;1.88;;;17.20;99.90;;;;;;5011766;28;20021;-82
2022/07/24 04:55:18;;;;;;;4.55;2.00;;;17.20;99.90;;;;;;5011118;28;20038;-82
2022/07/24 04:57:43;;;;;;;1.88;1.75;;;17.30;99.90;;;;;;5011239;28;20029;-82
2022/07/24 05:00:11;;;;;;;3.17;2.17;;;17.40;99.90;;;;;;5010579;28;20034;-82
2022/07/24 05:02:37;;;;;;;2.67;1.90;;;17.40;99.90;;;;;;5010220;28;20042;-82
2022/07/24 05:05:03;;;;;;;2.05;1.80;;;17.40;99.90;;;;;;5011038;28;20056;-82
2022/07/24 05:07:29;;;;;;;1.88;1.77;;;17.40;99.90;;;;;;5009869;28;20032;-82
2022/07/24 05:09:55;;;;;;;3.25;1.70;;;17.50;99.90;;;;;;5010132;28;20018;-84
2022/07/24 05:12:21;;;;;;;2.45;1.77;;;17.60;99.90;;;;;;5011298;28;20105;-83
2022/07/24 05:14:46;;;;;;;3.40;2.03;;;17.60;99.90;;;;;;5026283;28;20017;-83
2022/07/24 05:17:12;;;;;;;3.47;1.67;;;17.70;99.90;;;;;;5010047;28;20057;-83
2022/07/24 05:19:38;;;;;;;2.28;1.70;;;17.70;99.90;;;;;;5009770;28;20105;-82
2022/07/24 05:22:04;;;;;;;2.38;1.83;;;17.70;99.90;;;;;;5011226;28;20018;-81
2022/07/24 05:24:29;;;;;;;4.68;2.13;;;17.70;99.90;;;;;;5010865;28;20073;-83
2022/07/24 05:26:55;;;;;;;1.75;1.38;;;17.70;99.90;;;;;;5010778;28;20646;-82
2022/07/24 05:29:21;;;;;;;4.60;2.10;;;17.80;99.90;;;;;;5026385;23;20054;-75
2022/07/24 05:31:47;;;;;;;2.20;1.65;;;17.80;99.90;;;;;;4991431;28;20027;-75
2022/07/24 05:34:13;;;;;;;2.20;2.00;;;17.80;99.90;;;;;;4989831;28;20030;-76
2022/07/24 05:36:39;;;;;;;4.95;1.92;;;17.90;99.90;;;;;;4991784;28;20034;-75
2022/07/24 05:39:05;;;;;;;2.55;1.77;;;17.90;99.90;;;;;;4990916;28;20018;-75
2022/07/24 05:41:31;;;;;;;3.20;1.70;;;18.00;99.90;;;;;;4991066;28;20026;-75
2022/07/24 05:43:56;;;;;;;3.35;1.80;;;18.00;99.90;;;;;;4991413;28;20456;-75
2022/07/24 05:46:22;;;;;;;1.85;1.70;;;18.10;99.90;;;;;;4991456;28;20027;-75
2022/07/24 05:48:48;;;;;;;4.32;1.30;;;18.20;99.90;;;;;;4991152;28;20023;-75
2022/07/24 05:51:14;;;;;;;2.13;1.52;;;18.30;99.90;;;;;;4991523;28;20023;-75
2022/07/24 05:53:40;;;;;;;3.17;1.85;;;18.40;99.90;;;;;;4991211;28;20022;-75
2022/07/24 05:56:06;;;;;;;1.75;1.42;;;18.40;99.90;;;;;;4990273;28;20039;-75
2022/07/24 05:58:32;;;;;;;2.22;1.58;;;18.50;99.90;;;;;;4991209;28;20019;-75
2022/07/24 06:00:58;;;;;;;3.20;1.95;;;18.50;99.90;;;;;;4991305;28;20127;-75
2022/07/24 06:03:24;;;;;;;4.28;1.77;;;18.60;99.90;;;;;;4990903;28;20677;-75
2022/07/24 06:05:49;;;;;;;2.13;1.58;;;18.70;99.90;;;;;;4990926;28;20044;-75
2022/07/24 06:08:15;;;;;;;2.03;1.70;;;18.70;99.90;;;;;;4991110;28;20488;-75
2022/07/24 06:10:41;;;;;;;2.00;1.40;;;18.80;99.90;;;;;;4990687;28;20510;-75
2022/07/24 06:13:07;;;;;;;1.50;1.40;;;19.00;99.90;;;;;;4990942;28;20033;-75
2022/07/24 06:15:32;;;;;;;2.58;1.40;;;19.00;99.90;;;;;;4992441;28;20498;-75
2022/07/24 06:17:58;;;;;;;1.75;1.52;;;19.20;99.90;;;;;;4994779;28;20018;-75
2022/07/24 06:20:24;;;;;;;2.13;1.60;;;19.20;99.90;;;;;;4994763;28;20019;-74
2022/07/24 06:22:50;;;;;;;1.52;1.35;;;19.30;99.90;;;;;;4994529;28;20411;-75
2022/07/24 06:25:17;;;;;;;2.13;1.20;;;19.50;99.90;;;;;;4994391;28;20037;-75
2022/07/24 06:27:48;;;;;;;1.55;1.42;;;19.60;99.90;;;;;;5016180;23;20069;-82
2022/07/24 06:30:15;;;;;;;1.40;1.30;;;19.70;99.90;;;;;;5008124;28;20492;-83
2022/07/24 06:32:42;;;;;;;3.13;1.40;;;19.80;99.90;;;;;;4994670;28;20021;-82
2022/07/24 06:35:08;;;;;;;2.75;1.58;;;19.90;99.90;;;;;;5009374;28;20053;-81
2022/07/24 06:37:34;;;;;;;2.28;1.33;;;20.10;99.90;;;;;;4994664;28;20027;-82
2022/07/24 06:40:00;;;;;;;3.05;1.65;;;20.10;99.90;;;;;;5008812;28;20518;-82
2022/07/24 06:42:26;;;;;;;1.52;1.42;;;20.20;99.90;;;;;;4994469;28;20030;-81
2022/07/24 06:44:52;;;;;;;1.45;1.35;;;20.10;99.90;;;;;;4994255;28;20023;-82
2022/07/24 06:47:18;;;;;;;4.25;1.63;;;20.00;99.90;;;;;;5009256;28;20026;-81
2022/07/24 06:49:43;;;;;;;1.40;1.02;;;20.00;99.90;;;;;;4994027;28;20027;-80
2022/07/24 06:52:09;;;;;;;1.40;1.30;;;20.00;99.90;;;;;;4994436;28;20522;-82
2022/07/24 06:54:35;;;;;;;2.42;1.20;;;20.00;99.90;;;;;;5009165;28;20018;-81
2022/07/24 06:57:01;;;;;;;1.77;1.23;;;20.00;99.90;;;;;;5005013;28;20040;-83
2022/07/24 06:59:27;;;;;;;2.10;1.70;;;20.10;99.90;;;;;;5005241;28;20018;-79
2022/07/24 07:01:53;;;;;;;1.30;1.02;;;20.10;99.90;;;;;;4992249;28;20022;-80
2022/07/24 07:04:18;;;;;;;3.17;1.67;;;20.30;99.90;;;;;;4992526;28;20034;-82
2022/07/24 07:06:44;;;;;;;1.67;1.58;;;20.20;99.90;;;;;;4994217;28;20015;-81
2022/07/24 07:09:10;;;;;;;4.45;1.63;;;20.20;99.90;;;;;;4997078;28;20030;-82
2022/07/24 07:11:36;;;;;;;1.77;1.55;;;20.30;99.90;;;;;;4992965;28;20034;-82
2022/07/24 07:14:02;;;;;;;3.22;1.73;;;20.30;99.90;;;;;;4993646;28;20026;-80
2022/07/24 07:16:28;;;;;;;2.72;1.48;;;20.40;99.90;;;;;;4993872;28;20646;-81
2022/07/24 07:18:54;;;;;;;3.10;1.80;;;20.40;99.90;;;;;;4991912;28;20020;-80
2022/07/24 07:21:19;;;;;;;2.55;1.25;;;20.40;99.90;;;;;;4993221;28;20015;-82
2022/07/24 07:23:45;;;;;;;2.65;1.50;;;20.40;99.90;;;;;;5008674;28;20134;-81
2022/07/24 07:26:12;;;;;;;1.38;1.25;;;20.20;99.90;;;;;;5008121;28;20027;-81
2022/07/24 07:28:37;;;;;;;4.05;1.50;;;20.20;99.90;;;;;;5007151;28;20037;-80
2022/07/24 07:31:03;;;;;;;2.17;1.27;;;20.00;99.90;;;;;;4993868;28;20073;-80
2022/07/24 07:33:29;;;;;;;1.60;1.50;;;20.00;99.90;;;;;;4993380;28;20059;-81
2022/07/24 07:35:55;;;;;;;3.03;1.45;;;20.00;99.90;;;;;;5002816;28;20038;-80
2022/07/24 07:38:21;;;;;;;2.28;1.63;;;20.10;99.90;;;;;;5003272;28;20097;-80
2022/07/24 07:40:46;;;;;;;2.58;1.60;;;20.00;99.90;;;;;;5001571;28;20037;-80
2022/07/24 07:43:12;;;;;;;2.13;1.23;;;20.10;99.90;;;;;;5008616;28;20113;-79
2022/07/24 07:45:38;;;;;;;1.52;1.25;;;20.20;99.90;;;;;;5007958;28;20158;-80
2022/07/24 07:48:04;;;;;;;1.50;1.40;;;20.30;99.90;;;;;;4992639;28;20057;-79
2022/07/24 07:50:30;;;;;;;1.83;1.15;;;20.50;99.90;;;;;;4993039;28;20033;-81
2022/07/24 07:52:56;;;;;;;3.03;1.70;;;20.50;99.90;;;;;;4993470;28;20499;-80
2022/07/24 07:55:21;;;;;;;1.73;1.08;;;20.60;99.90;;;;;;4992403;28;20041;-80
2022/07/24 07:57:49;;;;;;;2.28;1.60;;;20.50;99.90;;;;;;5017903;23;20052;-76
2022/07/24 08:00:16;;;;;;;2.83;1.70;;;20.50;99.90;;;;;;5011362;28;20073;-79
2022/07/24 08:02:42;;;;;;;2.78;1.02;;;20.50;99.90;;;;;;5012356;28;20022;-77
2022/07/24 08:05:08;;;;;;;1.63;0.93;;;20.50;99.90;;;;;;5012267;28;20083;-79
2022/07/24 08:07:34;;;;;;;6.63;1.35;;;20.60;99.90;;;;;;5012780;28;20414;-79
2022/07/24 08:10:00;;;;;;;2.60;1.15;;;20.60;99.90;;;;;;5012153;28;20121;-79
2022/07/24 08:12:26;;;;;;;2.53;1.50;;;20.70;99.90;;;;;;5012105;28;20676;-76
2022/07/24 08:14:52;;;;;;;1.23;0.98;;;20.80;99.90;;;;;;5011733;28;20106;-78
2022/07/24 08:17:18;;;;;;;2.72;1.20;;;20.90;99.90;;;;;;5011791;28;20112;-79
2022/07/24 08:19:45;;;;;;;1.70;1.20;;;21.10;99.90;;;;;;5012144;28;20463;-79
2022/07/24 08:22:11;;;;;;;2.60;1.20;;;21.30;99.90;;;;;;5012049;28;20025;-78
2022/07/24 08:24:38;;;;;;;2.53;1.40;;;21.50;99.90;;;;;;5011688;28;20017;-79
2022/07/24 08:27:04;;;;;;;3.47;1.17;;;21.80;99.90;;;;;;5011722;28;20105;-78
2022/07/24 08:29:30;;;;;;;1.98;1.08;;;21.90;99.90;;;;;;5011235;28;20025;-80
2022/07/24 08:31:55;;;;;;;2.75;1.30;;;22.30;99.90;;;;;;5011802;28;20025;-80
2022/07/24 08:34:21;;;;;;;2.25;1.20;;;22.40;99.90;;;;;;5011751;28;20037;-80
2022/07/24 08:36:47;;;;;;;1.30;1.20;;;22.30;99.90;;;;;;5011711;28;20037;-82
2022/07/24 08:39:13;;;;;;;1.20;1.00;;;22.30;99.90;;;;;;5003952;28;20022;-80
2022/07/24 08:41:39;;;;;;;1.70;1.10;;;22.20;99.90;;;;;;5011071;28;20048;-80
2022/07/24 08:44:06;;;;;;;2.17;1.00;;;22.40;99.90;;;;;;5010555;28;20534;-80
2022/07/24 08:46:32;;;;;;;3.08;1.23;;;22.50;99.90;;;;;;5009513;28;20034;-79
2022/07/24 08:48:58;;;;;;;2.15;1.15;;;22.80;99.90;;;;;;5009481;28;20129;-80
2022/07/24 08:51:33;;;;;;;1.55;0.90;;;23.20;99.90;;;;;;5009448;28;20022;-79
2022/07/24 08:53:59;;;;;;;1.83;1.00;;;24.10;98.50;;;;;;5008783;28;20049;-79
2022/07/24 08:56:26;;;;;;;2.83;1.10;;;24.90;91.10;;;;;;5010238;28;20048;-80
2022/07/24 08:58:51;;;;;;;5.10;1.27;;;25.30;83.70;;;;;;5024885;23;20042;-79
2022/07/24 09:01:17;;;;;;;1.10;1.00;;;25.70;80.60;;;;;;5009737;28;20081;-78
2022/07/24 09:03:45;;;;;;;3.33;1.30;;;26.20;75.10;;;;;;5009839;28;20048;-80
2022/07/24 09:06:13;;;;;;;1.85;0.80;;;26.70;72.80;;;;;;5008635;28;20026;-80
2022/07/24 09:08:43;;;;;;;0.80;0.80;;;27.20;65.90;;;;;;5008982;28;20049;-79
2022/07/24 09:11:10;;;;;;;2.05;0.80;;;27.20;63.80;;;;;;5003135;28;20021;-80
2022/07/24 09:16:23;;;;;;;2.60;0.65;;;28.30;61.90;;;;;;5008433;28;20513;-79
2022/07/24 09:19:04;;;;;;;1.15;1.05;;;28.60;59.70;;;;;;5009611;28;20022;-79
2022/07/24 09:21:33;;;;;;;0.80;0.80;;;29.00;57.40;;;;;;5016851;28;20030;-80
2022/07/24 09:24:02;;;;;;;1.77;1.02;;;29.40;55.40;;;;;;5004784;28;20022;-81
2022/07/24 09:26:48;;;;;;;1.27;0.75;;;29.90;54.60;;;;;;5011067;28;20463;-79
2022/07/24 09:29:16;;;;;;;0.85;0.60;;;30.50;51.10;;;;;;5004970;28;20050;-82
2022/07/24 09:31:57;;;;;;;3.03;0.68;;;31.20;51.20;;;;;;5025081;28;20071;-80
2022/07/24 09:34:24;;;;;;;0.50;0.50;;;30.80;47.80;;;;;;5012755;28;20014;-80
2022/07/24 09:37:02;;;;;;;1.42;0.70;;;30.90;48.10;;;;;;5025304;28;20037;-80
2022/07/24 09:39:29;;;;;;;0.93;0.82;;;31.30;47.50;;;;;;5021787;28;20018;-80
2022/07/24 09:41:57;;;;;;;1.42;0.70;;;31.60;46.90;;;;;;5006002;28;20131;-79
2022/07/24 09:44:26;;;;;;;1.45;0.82;;;31.10;46.80;;;;;;5031720;28;20021;-79
2022/07/24 09:47:00;;;;;;;1.05;0.60;;;31.20;47.00;;;;;;5024859;28;20024;-79
2022/07/24 09:49:27;;;;;;;0.93;0.68;;;31.20;46.70;;;;;;5025767;28;20022;-81
2022/07/24 09:52:05;;;;;;;2.28;0.93;;;32.20;45.80;;;;;;5023258;28;20025;-82
2022/07/24 09:54:34;;;;;;;0.75;0.50;;;32.10;44.30;;;;;;5024344;28;20048;-82
2022/07/24 09:57:19;;;;;;;1.13;0.60;;;33.00;45.00;;;;;;5020869;28;20494;-79
2022/07/24 09:59:49;;;;;;;1.88;0.73;;;33.00;41.40;;;;;;5048553;22;20045;-74
2022/07/24 10:02:17;;;;;;;1.40;0.60;;;32.60;41.10;;;;;;5025138;28;20029;-74
2022/07/24 10:04:44;;;;;;;0.77;0.68;;;32.20;43.40;;;;;;5025537;28;20018;-77
2022/07/24 10:07:12;;;;;;;1.45;0.80;;;32.40;42.20;;;;;;5022315;28;20461;-77
2022/07/24 10:09:43;;;;;;;0.95;0.68;;;31.60;43.80;;;;;;5014966;28;20483;-74
2022/07/24 10:12:18;;;;;;;0.70;0.65;;;31.90;43.50;;;;;;5010829;28;20041;-74
2022/07/24 10:14:46;;;;;;;0.95;0.55;;;32.50;43.00;;;;;;5009212;28;20079;-77
2022/07/24 10:17:13;;;;;;;0.95;0.73;;;33.30;41.10;;;;;;5010294;28;20030;-74
2022/07/24 10:19:45;;;;;;;1.33;0.43;;;33.40;40.30;;;;;;5010745;28;20026;-74
2022/07/24 10:22:19;;;;;;;1.65;0.77;;;33.40;41.00;;;;;;5010565;28;20017;-76
2022/07/24 10:24:54;;;;;;;1.23;0.63;;;33.30;40.40;;;;;;5010736;28;20022;-77
2022/07/24 10:27:35;;;;;;;0.50;0.50;;;33.60;41.00;;;;;;5010202;28;20026;-76
2022/07/24 10:30:07;;;;;;;1.60;0.70;;;33.30;39.30;;;;;;5009714;28;20730;-76
2022/07/24 10:32:34;;;;;;;1.30;0.57;;;33.30;40.30;;;;;;5009731;28;20058;-77
2022/07/24 10:35:18;;;;;;;1.05;0.47;;;33.30;41.30;;;;;;5010031;28;20037;-77
2022/07/24 10:37:58;;;;;;;0.80;0.50;;;34.00;40.70;;;;;;5004937;28;20026;-74
2022/07/24 10:40:31;;;;;;;1.95;0.57;;;34.60;39.70;;;;;;5010473;28;20054;-76
2022/07/24 10:43:10;;;;;;;1.13;0.30;;;35.40;38.10;;;;;;5010320;28;20105;-75
2022/07/24 10:45:37;;;;;;;1.80;0.40;;;35.90;37.00;;;;;;5009199;28;20028;-77
2022/07/24 10:48:22;;;;;;;1.38;0.45;;;36.20;36.80;;;;;;5010037;28;20024;-76
2022/07/24 10:50:57;;;;;;;3.30;1.50;;;36.80;34.30;;;;;;5010122;28;20029;-77
2022/07/24 10:53:40;;;;;;;0.63;0.35;;;37.10;35.20;;;;;;5009832;28;20028;-76
2022/07/24 10:56:26;;;;;;;0.63;0.52;;;36.70;34.10;;;;;;5007312;28;20041;-76
2022/07/24 10:59:07;;;;;;;0.95;0.30;;;35.70;34.00;;;;;;5025154;23;20034;-78
2022/07/24 11:01:44;;;;;;;1.42;0.60;;;34.70;35.80;;;;;;5004231;28;20113;-81
2022/07/24 11:04:19;;;;;;;2.00;0.50;;;34.60;36.70;;;;;;5012129;28;20034;-81
2022/07/24 11:06:48;;;;;;;0.47;0.47;;;35.00;36.70;;;;;;5013119;28;20018;-80
2022/07/24 11:09:16;;;;;;;1.15;0.60;;;34.50;37.00;;;;;;5011883;28;20041;-80
2022/07/24 11:12:03;;;;;;;1.27;0.63;;;34.60;36.30;;;;;;5015782;28;20077;-81
2022/07/24 11:14:38;;;;;;;0.75;0.60;;;34.80;36.90;;;;;;5013233;28;20018;-81
2022/07/24 11:17:42;;;;;;;0.60;0.50;;;35.80;36.90;;;;;;5010608;28;20080;-80
2022/07/24 11:20:10;;;;;;;1.13;0.47;;;35.80;35.00;;;;;;5010149;28;20029;-80
2022/07/24 11:22:45;;;;;;;0.70;0.50;;;34.90;35.40;;;;;;5012819;28;20030;-82
2022/07/24 11:25:22;;;;;;;1.58;0.55;;;34.60;37.00;;;;;;5011787;28;20026;-79
2022/07/24 11:27:49;;;;;;;0.40;0.40;;;35.40;37.20;;;;;;5007021;28;20156;-80
2022/07/24 11:30:16;;;;;;;1.00;0.57;;;35.20;35.70;;;;;;5012791;28;20431;-80
2022/07/24 11:32:42;;;;;;;2.08;0.60;;;34.30;35.50;;;;;;5012958;28;20029;-80
2022/07/24 11:35:08;;;;;;;0.60;0.45;;;33.90;36.00;;;;;;5018113;28;20079;-80
2022/07/24 11:37:39;;;;;;;0.45;0.40;;;33.50;36.00;;;;;;5025388;28;20065;-82
2022/07/24 11:40:07;;;;;;;1.48;0.68;;;33.10;37.10;;;;;;5025505;28;20028;-81
2022/07/24 11:42:33;;;;;;;0.40;0.40;;;33.80;36.10;;;;;;5016860;28;20030;-81
2022/07/24 11:45:00;;;;;;;1.52;0.55;;;34.20;36.60;;;;;;5023034;28;20028;-81
2022/07/24 11:47:29;;;;;;;1.95;0.45;;;35.30;35.70;;;;;;5018190;28;20502;-81
2022/07/24 11:50:02;;;;;;;0.68;0.50;;;36.00;33.40;;;;;;5013325;28;20025;-80
2022/07/24 11:52:32;;;;;;;1.65;0.40;;;35.50;33.30;;;;;;5012234;28;20041;-80
2022/07/24 11:55:07;;;;;;;0.50;0.32;;;35.50;33.40;;;;;;5005892;28;20033;-79
2022/07/24 11:57:37;;;;;;;0.85;0.50;;;35.40;34.10;;;;;;5012456;28;20022;-80
2022/07/24 12:00:12;;;;;;;1.05;0.57;;;35.90;32.90;;;;;;5033365;23;20467;-81
2022/07/24 12:02:46;;;;;;;1.02;0.45;;;36.00;33.40;;;;;;5008359;28;20033;-82
2022/07/24 12:05:12;;;;;;;1.58;0.40;;;37.30;33.30;;;;;;5002933;28;20168;-81
2022/07/24 12:07:38;;;;;;;1.02;0.40;;;38.10;31.20;;;;;;5003279;28;20032;-79
2022/07/24 12:10:05;;;;;;;0.85;0.55;;;37.70;30.40;;;;;;5004174;28;20109;-80
2022/07/24 12:12:33;;;;;;;0.40;0.40;;;37.30;30.20;;;;;;5005422;28;20708;-80
2022/07/24 12:15:08;;;;;;;0.90;0.50;;;37.60;30.40;;;;;;5006286;28;20021;-80
2022/07/24 12:17:55;;;;;;;1.58;0.43;;;38.10;30.50;;;;;;5003690;28;20023;-80
2022/07/24 12:20:32;;;;;;;0.85;0.50;;;38.60;29.40;;;;;;4999352;28;20022;-80
2022/07/24 12:23:00;;;;;;;0.90;0.50;;;38.30;29.80;;;;;;4997579;28;20045;-79
2022/07/24 12:25:28;;;;;;;1.15;0.50;;;37.80;29.00;;;;;;4991516;28;20106;-79
2022/07/24 12:28:08;;;;;;;0.57;0.30;;;36.50;30.80;;;;;;4993064;28;20022;-78
2022/07/24 12:30:46;;;;;;;1.20;0.50;;;36.50;32.20;;;;;;4986883;28;20386;-78
2022/07/24 12:33:15;;;;;;;1.08;0.35;;;37.40;30.30;;;;;;4997540;28;20583;-78
2022/07/24 12:35:56;;;;;;;0.30;0.30;;;37.80;29.90;;;;;;4990767;28;20045;-82
2022/07/24 12:38:33;;;;;;;1.92;0.40;;;38.70;28.60;;;;;;4992514;28;20019;-82
2022/07/24 12:41:16;;;;;;;1.38;0.55;;;38.70;28.80;;;;;;4992161;28;20014;-81
2022/07/24 12:43:49;;;;;;;0.73;0.73;;;38.80;27.90;;;;;;4991970;28;20030;-82
2022/07/24 12:46:17;;;;;;;0.45;0.45;;;39.10;28.00;;;;;;4990915;28;20022;-80
2022/07/24 12:49:00;;;;;;;1.17;0.43;;;38.40;27.00;;;;;;4992172;28;20395;-81
2022/07/24 12:51:27;;;;;;;0.40;0.35;;;37.30;29.00;;;;;;4992144;28;20033;-85
2022/07/24 12:53:56;;;;;;;1.17;0.38;;;35.80;30.60;;;;;;4997891;28;20073;-81
2022/07/24 12:56:22;;;;;;;0.47;0.40;;;35.00;31.30;;;;;;4996961;28;20092;-82